Time;durP1;ratioP1;P1;durP2;ratioP2;P2;SDS_P1;SDS_P2;PMS_P1;PMS_P2;Temp;Humidity;BMP_temperature;BMP_pressure;BME280_temperature;BME280_humidity;BME280_pressure;Samples;Min_cycle;Max_cycle;Signal;HPM_P1;HPM_P2
2022/03/06 00:00:48;;;;;;;17.93;11.63;;;1.30;99.90;;;;;;5029614;28;20030;-85
2022/03/06 00:03:14;;;;;;;125.73;50.73;;;1.40;99.90;;;;;;5045893;28;20037;-85
2022/03/06 00:05:39;;;;;;;763.43;309.27;;;1.40;99.90;;;;;;5022345;28;20035;-85
2022/03/06 00:08:06;;;;;;;212.67;95.13;;;1.50;99.90;;;;;;5018356;28;20426;-85
2022/03/06 00:10:31;;;;;;;55.63;31.93;;;1.50;99.90;;;;;;5043593;28;20033;-85
2022/03/06 00:12:57;;;;;;;39.27;25.30;;;1.50;99.90;;;;;;5018647;28;20147;-85
2022/03/06 00:15:26;;;;;;;33.90;23.70;;;1.60;99.90;;;;;;5022413;28;20064;-86
2022/03/06 00:17:52;;;;;;;22.30;14.73;;;1.60;99.90;;;;;;5021537;28;20077;-85
2022/03/06 00:20:17;;;;;;;20.23;13.90;;;1.60;99.90;;;;;;5019599;28;20048;-86
2022/03/06 00:22:43;;;;;;;16.10;11.63;;;1.60;99.90;;;;;;5014938;28;20037;-85
2022/03/06 00:25:09;;;;;;;16.53;11.03;;;1.70;99.90;;;;;;5017873;28;20067;-86
2022/03/06 00:27:34;;;;;;;14.67;10.70;;;1.70;99.90;;;;;;5016641;28;20502;-85
2022/03/06 00:30:00;;;;;;;14.23;9.87;;;1.80;99.90;;;;;;5014987;28;20515;-86
2022/03/06 00:32:26;;;;;;;12.93;9.37;;;1.70;99.90;;;;;;5021618;28;20379;-86
2022/03/06 00:34:52;;;;;;;12.67;9.57;;;1.80;99.90;;;;;;5031671;28;20047;-86
2022/03/06 00:37:18;;;;;;;13.40;9.87;;;1.80;99.90;;;;;;5030358;28;20433;-86
2022/03/06 00:39:44;;;;;;;14.07;8.00;;;1.80;99.90;;;;;;5029087;28;20032;-86
2022/03/06 00:42:10;;;;;;;14.23;9.43;;;1.80;99.90;;;;;;5014614;28;20076;-86
2022/03/06 00:44:36;;;;;;;14.57;9.50;;;1.80;99.90;;;;;;5030869;28;20497;-86
2022/03/06 00:47:03;;;;;;;13.27;9.53;;;1.80;99.90;;;;;;5014739;28;20091;-85
2022/03/06 00:49:29;;;;;;;12.80;9.43;;;1.70;99.90;;;;;;5026325;28;20107;-85
2022/03/06 00:51:54;;;;;;;12.57;8.50;;;1.70;99.90;;;;;;5019125;28;20045;-86
2022/03/06 00:54:20;;;;;;;13.47;9.23;;;1.70;99.90;;;;;;5014228;28;20046;-86
2022/03/06 00:56:46;;;;;;;12.07;8.83;;;1.60;99.90;;;;;;5014270;28;20042;-86
2022/03/06 00:59:12;;;;;;;12.03;8.67;;;1.60;99.90;;;;;;5027677;28;20203;-86
2022/03/06 01:01:38;;;;;;;11.63;8.63;;;1.60;99.90;;;;;;5029148;28;20044;-86
2022/03/06 01:04:04;;;;;;;13.03;9.10;;;1.60;99.90;;;;;;5018614;28;20029;-86
2022/03/06 01:06:30;;;;;;;13.63;8.50;;;1.60;99.90;;;;;;5030448;28;20094;-85
2022/03/06 01:08:56;;;;;;;13.97;9.20;;;1.60;99.90;;;;;;5034399;28;20037;-86
2022/03/06 01:11:21;;;;;;;14.87;9.33;;;1.60;99.90;;;;;;5026932;28;20064;-86
2022/03/06 01:13:47;;;;;;;11.67;8.77;;;1.60;99.90;;;;;;5051346;28;20045;-86
2022/03/06 01:16:13;;;;;;;13.07;9.17;;;1.60;99.90;;;;;;5018121;28;20036;-85
2022/03/06 01:18:39;;;;;;;16.30;8.90;;;1.60;99.90;;;;;;5034253;28;20043;-86
2022/03/06 01:21:05;;;;;;;14.00;9.37;;;1.60;99.90;;;;;;5032399;28;20033;-86
2022/03/06 01:23:30;;;;;;;12.80;8.97;;;1.60;99.90;;;;;;5032481;28;20044;-86
2022/03/06 01:25:56;;;;;;;14.27;8.53;;;1.60;99.90;;;;;;5021080;28;20038;-86
2022/03/06 01:28:22;;;;;;;14.03;9.37;;;1.60;99.90;;;;;;5031366;28;20506;-86
2022/03/06 01:30:47;;;;;;;12.30;8.00;;;1.60;99.90;;;;;;5015559;28;20033;-86
2022/03/06 01:33:13;;;;;;;15.90;8.63;;;1.60;99.90;;;;;;5026888;28;20033;-86
2022/03/06 01:35:39;;;;;;;15.07;9.40;;;1.60;99.90;;;;;;5029409;28;20033;-86
2022/03/06 01:38:04;;;;;;;12.17;8.40;;;1.60;99.90;;;;;;5016746;28;20033;-85
2022/03/06 01:40:30;;;;;;;13.13;8.67;;;1.60;99.90;;;;;;5032526;28;20080;-85
2022/03/06 01:42:56;;;;;;;12.43;8.07;;;1.60;99.90;;;;;;5034037;28;20025;-86
2022/03/06 01:45:23;;;;;;;13.00;8.13;;;1.60;99.90;;;;;;5008959;28;20419;-85
2022/03/06 01:47:51;;;;;;;14.93;8.73;;;1.60;99.90;;;;;;5031846;28;20045;-85
2022/03/06 01:50:23;;;;;;;11.17;8.40;;;1.60;99.90;;;;;;5031872;28;20422;-86
2022/03/06 01:52:50;;;;;;;14.33;8.73;;;1.50;99.90;;;;;;5032761;28;20072;-85
2022/03/06 01:55:17;;;;;;;11.60;8.30;;;1.60;99.90;;;;;;5017025;28;20041;-86
2022/03/06 01:57:44;;;;;;;12.33;8.50;;;1.60;99.90;;;;;;5031628;28;20518;-86
2022/03/06 02:00:22;;;;;;;13.20;8.80;;;1.50;99.90;;;;;;5028900;28;20041;-86
2022/03/06 02:02:48;;;;;;;13.20;8.67;;;1.50;99.90;;;;;;5031915;28;20029;-85
2022/03/06 02:05:14;;;;;;;12.70;8.97;;;1.50;99.90;;;;;;5033626;28;20522;-86
2022/03/06 02:07:39;;;;;;;13.40;8.80;;;1.50;99.90;;;;;;5015830;28;20164;-86
2022/03/06 02:10:07;;;;;;;13.37;8.70;;;1.60;99.90;;;;;;5031405;28;20052;-85
2022/03/06 02:12:32;;;;;;;12.77;7.73;;;1.50;99.90;;;;;;5024633;28;20046;-85
2022/03/06 02:15:01;;;;;;;12.40;8.53;;;1.50;99.90;;;;;;5029310;28;20033;-85
2022/03/06 02:17:27;;;;;;;10.17;8.00;;;1.60;99.90;;;;;;5031287;28;20508;-85
2022/03/06 02:19:56;;;;;;;11.63;8.50;;;1.60;99.90;;;;;;5028481;28;20025;-87
2022/03/06 02:22:24;;;;;;;12.37;7.60;;;1.60;99.90;;;;;;5022963;28;20522;-86
2022/03/06 02:24:50;;;;;;;10.67;6.83;;;1.50;99.90;;;;;;5024900;28;20041;-86
2022/03/06 02:27:15;;;;;;;11.23;7.20;;;1.50;99.90;;;;;;5016755;28;20554;-86
2022/03/06 02:29:42;;;;;;;11.40;7.33;;;1.50;99.90;;;;;;5033751;28;20041;-87
2022/03/06 02:32:09;;;;;;;10.33;6.60;;;1.50;99.90;;;;;;5029725;28;20056;-86
2022/03/06 02:34:37;;;;;;;10.27;6.23;;;1.50;99.90;;;;;;5047937;28;20196;-87
2022/03/06 02:37:03;;;;;;;8.90;5.93;;;1.50;99.90;;;;;;5035417;28;20129;-87
2022/03/06 02:39:28;;;;;;;10.03;6.13;;;1.50;99.90;;;;;;5031356;28;20071;-87
2022/03/06 02:41:54;;;;;;;10.97;6.03;;;1.60;99.90;;;;;;5030963;28;20030;-87
2022/03/06 02:44:21;;;;;;;9.50;5.33;;;1.50;99.90;;;;;;5016499;28;20086;-86
2022/03/06 02:46:47;;;;;;;9.77;5.77;;;1.50;99.90;;;;;;5031021;28;20037;-85
2022/03/06 02:49:13;;;;;;;9.37;5.47;;;1.50;99.90;;;;;;5047511;28;20510;-86
2022/03/06 02:51:44;;;;;;;8.40;5.40;;;1.50;99.90;;;;;;5020733;28;20040;-86
2022/03/06 02:54:10;;;;;;;8.27;5.00;;;1.50;99.90;;;;;;5029969;28;20037;-86
2022/03/06 02:56:37;;;;;;;7.00;4.73;;;1.50;99.90;;;;;;5032621;28;20047;-86
2022/03/06 02:59:03;;;;;;;7.13;4.70;;;1.50;99.90;;;;;;5030195;28;20487;-86
2022/03/06 03:01:30;;;;;;;7.30;4.93;;;1.50;99.90;;;;;;5017711;28;20046;-87
2022/03/06 03:03:55;;;;;;;10.30;5.33;;;1.50;99.90;;;;;;5030440;28;20069;-85
2022/03/06 03:06:21;;;;;;;9.07;4.93;;;1.50;99.90;;;;;;5030587;28;20068;-87
2022/03/06 03:08:48;;;;;;;8.23;5.10;;;1.50;99.90;;;;;;5029458;28;20037;-85
2022/03/06 03:11:14;;;;;;;7.57;5.10;;;1.40;99.90;;;;;;5031569;28;20129;-86
2022/03/06 03:13:40;;;;;;;7.50;4.83;;;1.40;99.90;;;;;;5031182;28;20116;-86
2022/03/06 03:16:06;;;;;;;8.73;5.13;;;1.40;99.90;;;;;;5019715;28;20029;-86
2022/03/06 03:18:32;;;;;;;9.60;5.10;;;1.40;99.90;;;;;;5015612;28;20064;-86
2022/03/06 03:20:58;;;;;;;8.57;5.33;;;1.40;99.90;;;;;;5014473;28;20068;-86
2022/03/06 03:23:23;;;;;;;7.63;4.73;;;1.40;99.90;;;;;;4998930;28;20091;-85
2022/03/06 03:25:49;;;;;;;8.33;4.70;;;1.40;99.90;;;;;;5029921;28;20495;-85
2022/03/06 03:28:14;;;;;;;7.60;5.07;;;1.40;99.90;;;;;;5030945;28;20037;-85
2022/03/06 03:30:40;;;;;;;9.57;5.03;;;1.40;99.90;;;;;;5030294;28;20041;-86
2022/03/06 03:33:05;;;;;;;7.07;4.83;;;1.40;99.90;;;;;;5017509;28;20406;-86
2022/03/06 03:35:31;;;;;;;11.27;5.00;;;1.40;99.90;;;;;;5015511;28;20041;-86
2022/03/06 03:37:56;;;;;;;6.53;4.80;;;1.30;99.90;;;;;;5047206;28;20100;-86
2022/03/06 03:40:22;;;;;;;9.40;4.90;;;1.30;99.90;;;;;;5014336;28;20045;-86
2022/03/06 03:42:48;;;;;;;9.07;5.40;;;1.30;99.90;;;;;;5028354;28;20029;-85
2022/03/06 03:45:14;;;;;;;6.90;5.13;;;1.30;99.90;;;;;;5026824;28;20087;-86
2022/03/06 03:47:39;;;;;;;8.30;5.27;;;1.30;99.90;;;;;;5031465;28;20495;-86
2022/03/06 03:50:05;;;;;;;8.33;5.10;;;1.20;99.90;;;;;;5033582;28;20037;-85
2022/03/06 03:52:31;;;;;;;10.60;5.53;;;1.20;99.90;;;;;;5030244;28;20041;-86
2022/03/06 03:54:56;;;;;;;7.70;4.97;;;1.20;99.90;;;;;;5027443;28;20056;-86
2022/03/06 03:57:23;;;;;;;7.60;4.93;;;1.20;99.90;;;;;;5019065;28;20081;-85
2022/03/06 03:59:49;;;;;;;8.37;5.33;;;1.10;99.90;;;;;;5016842;28;20052;-85
2022/03/06 04:02:15;;;;;;;7.27;5.03;;;1.10;99.90;;;;;;5046255;28;20368;-86
2022/03/06 04:04:41;;;;;;;12.23;5.50;;;1.00;99.90;;;;;;5031058;28;20083;-86
2022/03/06 04:07:06;;;;;;;10.77;5.27;;;1.00;99.90;;;;;;5014815;28;20478;-86
2022/03/06 04:09:32;;;;;;;9.43;4.60;;;1.00;99.90;;;;;;5014875;28;20045;-85
2022/03/06 04:11:58;;;;;;;11.93;5.60;;;1.00;99.90;;;;;;5026519;28;20093;-85
2022/03/06 04:14:24;;;;;;;8.27;4.97;;;1.00;99.90;;;;;;5005531;28;20041;-86
2022/03/06 04:16:49;;;;;;;10.57;5.57;;;1.00;99.90;;;;;;5030065;28;20033;-86
2022/03/06 04:19:15;;;;;;;9.50;5.23;;;1.00;99.90;;;;;;5030001;28;20037;-86
2022/03/06 04:21:40;;;;;;;10.93;5.27;;;1.00;99.90;;;;;;5029271;28;20044;-86
2022/03/06 04:24:07;;;;;;;9.80;5.17;;;1.00;99.90;;;;;;5024240;28;20028;-86
2022/03/06 04:26:33;;;;;;;8.13;5.17;;;0.90;99.90;;;;;;5006322;28;20045;-86
2022/03/06 04:28:59;;;;;;;8.57;5.33;;;0.90;99.90;;;;;;5014732;28;20120;-86
2022/03/06 04:31:24;;;;;;;9.17;5.50;;;0.80;99.90;;;;;;5027356;28;20124;-85
2022/03/06 04:33:50;;;;;;;9.53;5.60;;;0.80;99.90;;;;;;5016821;28;20033;-86
2022/03/06 04:36:15;;;;;;;7.87;4.80;;;0.80;99.90;;;;;;5018075;28;20041;-86
2022/03/06 04:38:41;;;;;;;7.50;4.77;;;0.80;99.90;;;;;;5017840;28;20091;-85
2022/03/06 04:41:07;;;;;;;7.67;5.00;;;0.70;99.90;;;;;;4997016;28;20410;-87
2022/03/06 04:43:32;;;;;;;9.80;5.20;;;0.70;99.90;;;;;;5009232;28;20037;-86
2022/03/06 04:45:58;;;;;;;8.00;5.17;;;0.70;99.90;;;;;;4997951;28;20510;-86
2022/03/06 04:48:23;;;;;;;9.33;5.40;;;0.70;99.90;;;;;;5007583;28;20064;-85
2022/03/06 04:50:49;;;;;;;8.13;4.90;;;0.60;99.90;;;;;;5044299;28;20414;-85
2022/03/06 04:53:14;;;;;;;8.43;5.00;;;0.60;99.90;;;;;;5013437;28;20175;-86
2022/03/06 04:55:40;;;;;;;9.10;5.03;;;0.50;99.90;;;;;;5028465;28;20046;-85
2022/03/06 04:58:06;;;;;;;7.17;4.80;;;0.40;99.90;;;;;;5046667;28;20043;-86
2022/03/06 05:00:33;;;;;;;7.70;4.83;;;0.40;99.90;;;;;;5021252;28;20037;-85
2022/03/06 05:02:58;;;;;;;9.00;4.77;;;0.40;99.90;;;;;;5028818;28;20048;-86
2022/03/06 05:05:24;;;;;;;8.10;4.73;;;0.30;99.90;;;;;;5028407;28;20041;-86
2022/03/06 05:07:50;;;;;;;6.93;4.93;;;0.30;99.90;;;;;;5047904;28;20033;-86
2022/03/06 05:10:15;;;;;;;10.70;5.20;;;0.30;99.90;;;;;;5029333;28;20052;-85
2022/03/06 05:12:41;;;;;;;7.80;4.90;;;0.30;99.90;;;;;;5017550;28;20040;-86
2022/03/06 05:15:09;;;;;;;8.03;5.20;;;0.20;99.90;;;;;;5029191;28;20045;-86
2022/03/06 05:17:35;;;;;;;8.63;4.83;;;0.20;99.90;;;;;;5047959;28;20040;-85
2022/03/06 05:20:02;;;;;;;7.83;4.90;;;0.10;99.90;;;;;;5031742;28;20495;-86
2022/03/06 05:22:27;;;;;;;11.00;5.00;;;0.10;99.90;;;;;;5046572;28;20398;-86
2022/03/06 05:24:53;;;;;;;12.97;5.00;;;0.00;99.90;;;;;;5013884;28;20029;-86
2022/03/06 05:27:19;;;;;;;7.33;4.80;;;0.00;99.90;;;;;;5029013;28;20118;-86
2022/03/06 05:29:44;;;;;;;8.37;4.90;;;0.00;99.90;;;;;;5028964;28;20059;-86
2022/03/06 05:32:10;;;;;;;8.17;5.10;;;0.00;99.90;;;;;;5024556;28;20037;-86
2022/03/06 05:34:35;;;;;;;6.40;4.60;;;0.00;99.90;;;;;;5029611;28;20048;-86
2022/03/06 05:37:01;;;;;;;9.00;4.80;;;-0.10;99.90;;;;;;5018670;28;20045;-86
2022/03/06 05:39:26;;;;;;;9.77;4.87;;;-0.10;99.90;;;;;;5028801;28;20041;-86
2022/03/06 05:41:52;;;;;;;9.13;5.00;;;-0.20;99.90;;;;;;5019039;28;20038;-86
2022/03/06 05:44:17;;;;;;;8.80;4.60;;;-0.10;99.90;;;;;;5033289;28;20048;-86
2022/03/06 05:46:43;;;;;;;7.77;4.63;;;-0.30;99.90;;;;;;5036436;28;20044;-86
2022/03/06 05:49:12;;;;;;;8.33;4.87;;;-0.30;99.90;;;;;;5020148;28;20430;-86
2022/03/06 05:51:39;;;;;;;7.30;4.73;;;-0.30;99.90;;;;;;5027657;28;20507;-86
2022/03/06 05:54:06;;;;;;;6.80;4.50;;;-0.30;99.90;;;;;;5034580;28;20533;-86
2022/03/06 05:56:32;;;;;;;6.57;4.47;;;-0.40;99.90;;;;;;5047767;28;20111;-86
2022/03/06 05:58:57;;;;;;;10.07;4.90;;;-0.40;99.90;;;;;;5022272;28;20164;-85
2022/03/06 06:01:23;;;;;;;8.23;4.50;;;-0.40;99.90;;;;;;5020131;28;20465;-86
2022/03/06 06:03:49;;;;;;;7.80;4.50;;;-0.40;99.90;;;;;;5034404;28;20108;-86
2022/03/06 06:06:15;;;;;;;7.83;4.57;;;-0.50;99.90;;;;;;5030243;28;20053;-85
2022/03/06 06:08:41;;;;;;;8.53;5.20;;;-0.50;99.90;;;;;;5016024;28;20058;-86
2022/03/06 06:11:07;;;;;;;7.83;4.60;;;-0.50;99.90;;;;;;5032482;28;20117;-86
2022/03/06 06:13:33;;;;;;;9.17;4.93;;;-0.50;99.90;;;;;;5031102;28;20038;-86
2022/03/06 06:15:59;;;;;;;8.07;4.80;;;-0.50;99.90;;;;;;5027050;28;20047;-85
2022/03/06 06:18:27;;;;;;;9.10;5.50;;;-0.50;99.90;;;;;;5033312;28;20041;-85
2022/03/06 06:20:53;;;;;;;5.77;4.30;;;-0.60;99.90;;;;;;5012945;28;20030;-85
2022/03/06 06:23:19;;;;;;;8.37;6.00;;;-0.60;99.90;;;;;;5031145;28;20037;-86
2022/03/06 06:25:45;;;;;;;7.50;4.97;;;-0.60;99.90;;;;;;5032320;28;20045;-86
2022/03/06 06:28:10;;;;;;;7.43;5.00;;;-0.60;99.90;;;;;;5030013;28;20462;-86
2022/03/06 06:30:36;;;;;;;7.33;4.97;;;-0.50;99.90;;;;;;5019553;28;20127;-86
2022/03/06 06:33:01;;;;;;;8.90;4.80;;;-0.50;99.90;;;;;;5019302;28;20090;-86
2022/03/06 06:35:27;;;;;;;5.80;4.47;;;-0.50;99.90;;;;;;5003641;28;20080;-86
2022/03/06 06:37:52;;;;;;;7.33;4.57;;;-0.40;99.90;;;;;;5008665;28;20045;-85
2022/03/06 06:40:18;;;;;;;8.30;4.83;;;-0.40;99.90;;;;;;5008178;28;20041;-86
2022/03/06 06:42:44;;;;;;;7.13;5.07;;;-0.30;99.90;;;;;;5049157;28;20178;-86
2022/03/06 06:45:10;;;;;;;8.00;4.13;;;-0.20;99.90;;;;;;5033716;28;20403;-85
2022/03/06 06:47:36;;;;;;;6.93;4.20;;;-0.30;99.90;;;;;;5033651;28;20037;-86
2022/03/06 06:50:03;;;;;;;6.77;4.20;;;-0.20;99.90;;;;;;5033125;28;20041;-86
2022/03/06 06:52:28;;;;;;;7.30;4.30;;;-0.20;99.90;;;;;;5031208;28;20056;-86
2022/03/06 06:54:54;;;;;;;6.33;4.07;;;-0.10;99.90;;;;;;5031338;28;20049;-84
2022/03/06 06:57:19;;;;;;;9.10;4.47;;;-0.10;99.90;;;;;;5030869;28;20045;-86
2022/03/06 06:59:45;;;;;;;5.73;3.70;;;0.00;99.90;;;;;;5015565;28;20037;-86
2022/03/06 07:02:10;;;;;;;8.40;4.10;;;0.10;99.90;;;;;;5031864;28;20056;-86
2022/03/06 07:04:36;;;;;;;6.70;3.43;;;0.20;99.90;;;;;;5015504;28;20084;-86
2022/03/06 07:07:01;;;;;;;6.07;4.00;;;0.20;99.90;;;;;;5015298;28;20048;-85
2022/03/06 07:09:27;;;;;;;6.57;4.00;;;0.30;99.90;;;;;;5015479;28;20041;-85
2022/03/06 07:11:52;;;;;;;6.87;3.60;;;0.40;99.90;;;;;;5031890;28;20096;-85
2022/03/06 07:14:18;;;;;;;3.90;3.40;;;0.40;99.90;;;;;;5015038;28;20041;-85
2022/03/06 07:16:45;;;;;;;4.97;3.73;;;0.50;99.90;;;;;;5032581;28;20041;-86
2022/03/06 07:19:11;;;;;;;5.30;3.10;;;0.50;99.90;;;;;;5033175;28;20041;-86
2022/03/06 07:21:37;;;;;;;5.13;3.40;;;0.60;99.90;;;;;;5030772;28;20094;-85
2022/03/06 07:24:04;;;;;;;5.33;3.30;;;0.70;99.90;;;;;;5021378;28;20112;-85
2022/03/06 07:26:30;;;;;;;5.10;3.40;;;0.70;99.90;;;;;;5031114;28;20037;-86
2022/03/06 07:28:55;;;;;;;4.73;3.27;;;0.80;99.90;;;;;;5018268;28;20119;-86
2022/03/06 07:31:21;;;;;;;4.77;3.30;;;0.90;99.90;;;;;;5017227;28;20055;-87
2022/03/06 07:33:46;;;;;;;5.13;3.73;;;1.00;99.90;;;;;;5034509;28;20037;-86
2022/03/06 07:36:12;;;;;;;3.67;3.17;;;1.10;99.90;;;;;;5034501;28;20041;-87
2022/03/06 07:38:38;;;;;;;5.03;3.40;;;1.30;99.90;;;;;;5051109;28;20040;-85
2022/03/06 07:41:03;;;;;;;6.60;3.67;;;1.20;99.90;;;;;;5034415;28;20041;-86
2022/03/06 07:43:29;;;;;;;4.10;3.27;;;1.50;99.90;;;;;;5043457;28;20045;-86
2022/03/06 07:45:55;;;;;;;4.47;3.30;;;1.40;99.90;;;;;;5050475;28;20090;-85
2022/03/06 07:48:22;;;;;;;4.60;3.30;;;1.50;99.90;;;;;;5034403;28;20442;-85
2022/03/06 07:50:48;;;;;;;4.47;2.93;;;1.50;99.90;;;;;;5017497;28;20132;-85
2022/03/06 07:53:13;;;;;;;5.73;3.37;;;1.60;99.90;;;;;;5034138;28;20041;-86
2022/03/06 07:55:39;;;;;;;5.37;3.40;;;1.70;99.90;;;;;;5033827;28;20572;-86
2022/03/06 07:58:05;;;;;;;4.10;3.10;;;1.80;99.90;;;;;;5033354;28;20445;-86
2022/03/06 08:00:30;;;;;;;5.83;3.20;;;1.90;99.90;;;;;;5026318;28;20033;-85
2022/03/06 08:02:56;;;;;;;6.07;3.03;;;1.90;99.90;;;;;;5014464;28;20087;-86
2022/03/06 08:05:23;;;;;;;5.63;3.37;;;2.00;99.90;;;;;;4997826;28;20087;-86
2022/03/06 08:07:48;;;;;;;7.00;3.10;;;2.10;99.90;;;;;;5013743;28;20475;-86
2022/03/06 08:10:14;;;;;;;4.50;3.20;;;2.20;99.90;;;;;;4998124;28;20079;-86
2022/03/06 08:12:43;;;;;;;4.80;2.90;;;2.30;99.90;;;;;;5027444;28;20094;-86
2022/03/06 08:15:09;;;;;;;5.87;3.10;;;2.40;99.90;;;;;;5018617;28;20155;-86
2022/03/06 08:17:35;;;;;;;4.53;2.80;;;2.50;99.90;;;;;;5014062;28;20447;-86
2022/03/06 08:20:02;;;;;;;4.83;2.80;;;2.60;99.90;;;;;;5001906;28;20024;-85
2022/03/06 08:22:28;;;;;;;6.70;3.10;;;2.70;99.90;;;;;;5000770;28;20264;-86
2022/03/06 08:24:56;;;;;;;6.50;3.13;;;2.80;99.90;;;;;;5033561;28;20569;-86
2022/03/06 08:27:22;;;;;;;4.63;2.90;;;2.90;99.90;;;;;;5033563;28;20037;-86
2022/03/06 08:29:48;;;;;;;4.77;3.10;;;3.00;99.90;;;;;;5033497;28;20457;-86
2022/03/06 08:32:14;;;;;;;5.07;3.30;;;3.10;99.90;;;;;;5033784;28;20077;-87
2022/03/06 08:34:41;;;;;;;6.40;3.00;;;3.10;99.90;;;;;;5033704;28;20478;-85
2022/03/06 08:37:06;;;;;;;3.60;2.50;;;3.20;99.90;;;;;;5025400;28;20041;-85
2022/03/06 08:39:33;;;;;;;4.13;2.77;;;3.30;99.90;;;;;;4997845;28;20040;-87
2022/03/06 08:41:59;;;;;;;3.47;2.67;;;3.30;99.90;;;;;;4997315;28;20132;-86
2022/03/06 08:44:24;;;;;;;4.85;2.90;;;3.30;99.90;;;;;;4996816;28;20077;-87
2022/03/06 08:46:50;;;;;;;4.30;2.70;;;3.40;99.90;;;;;;5013537;28;20095;-86
2022/03/06 08:49:17;;;;;;;4.68;2.80;;;3.50;99.90;;;;;;4997610;28;20052;-87
2022/03/06 08:51:42;;;;;;;3.38;2.28;;;3.60;99.90;;;;;;4997664;28;20499;-87
2022/03/06 08:54:08;;;;;;;4.95;2.80;;;3.60;99.90;;;;;;4997223;28;20040;-87
2022/03/06 08:56:34;;;;;;;3.60;2.40;;;3.70;99.90;;;;;;4996977;28;20446;-87
2022/03/06 08:58:59;;;;;;;4.38;2.50;;;3.70;99.90;;;;;;5013358;28;20072;-86
2022/03/06 09:01:25;;;;;;;5.40;2.60;;;3.80;99.90;;;;;;4997453;28;20037;-87
2022/03/06 09:03:50;;;;;;;3.47;2.50;;;3.90;99.90;;;;;;5002783;28;20033;-86
2022/03/06 09:06:16;;;;;;;5.88;2.65;;;3.90;99.90;;;;;;5033115;28;20037;-86
2022/03/06 09:08:42;;;;;;;4.38;2.50;;;4.00;99.90;;;;;;5033148;28;20049;-87
2022/03/06 09:11:07;;;;;;;3.70;2.70;;;4.00;99.90;;;;;;5016400;28;20044;-87
2022/03/06 09:13:36;;;;;;;5.80;2.83;;;4.00;99.90;;;;;;5033128;28;20426;-86
2022/03/06 09:16:03;;;;;;;5.57;2.75;;;4.00;99.90;;;;;;5032871;28;20529;-87
2022/03/06 09:18:29;;;;;;;5.28;2.90;;;4.10;99.90;;;;;;5017726;28;20425;-86
2022/03/06 09:20:55;;;;;;;5.80;2.90;;;4.10;99.90;;;;;;5037057;28;20033;-87
2022/03/06 09:23:21;;;;;;;7.25;2.70;;;4.20;99.90;;;;;;5021247;28;20106;-87
2022/03/06 09:25:47;;;;;;;7.60;2.90;;;4.20;99.90;;;;;;5037193;28;20048;-87
2022/03/06 09:28:12;;;;;;;4.25;2.30;;;4.20;99.90;;;;;;5035677;28;20060;-87
2022/03/06 09:30:39;;;;;;;5.20;2.58;;;4.20;99.90;;;;;;5034593;28;20079;-86
2022/03/06 09:33:05;;;;;;;5.35;2.78;;;4.10;99.90;;;;;;5035158;28;20379;-86
2022/03/06 09:35:30;;;;;;;5.47;3.05;;;4.10;99.90;;;;;;5017787;28;20048;-86
2022/03/06 09:37:56;;;;;;;4.25;2.40;;;4.20;99.90;;;;;;5035130;28;20115;-86
2022/03/06 09:40:22;;;;;;;4.22;2.90;;;4.30;99.90;;;;;;5035956;28;20037;-86
2022/03/06 09:42:47;;;;;;;4.60;2.60;;;4.30;99.90;;;;;;5035106;28;20068;-86
2022/03/06 09:45:14;;;;;;;7.20;2.50;;;4.40;99.90;;;;;;5018772;28;20048;-86
2022/03/06 09:47:41;;;;;;;4.03;2.72;;;4.40;99.90;;;;;;5019520;28;20045;-86
2022/03/06 09:50:08;;;;;;;5.15;2.55;;;4.50;99.90;;;;;;5019648;28;20036;-87
2022/03/06 09:52:34;;;;;;;3.63;2.40;;;4.60;99.90;;;;;;5036747;28;20392;-87
2022/03/06 09:55:00;;;;;;;6.55;2.85;;;4.60;99.90;;;;;;5019847;28;20048;-86
2022/03/06 09:57:26;;;;;;;5.90;2.97;;;4.70;99.90;;;;;;5019585;28;20449;-87
2022/03/06 09:59:52;;;;;;;4.45;3.00;;;4.70;99.90;;;;;;5036291;28;20041;-87
2022/03/06 10:02:18;;;;;;;4.65;2.90;;;4.80;99.90;;;;;;5036462;28;20095;-86
2022/03/06 10:04:46;;;;;;;4.50;2.88;;;4.80;99.90;;;;;;5036121;28;20045;-87
2022/03/06 10:07:16;;;;;;;4.22;3.10;;;4.90;99.90;;;;;;5020174;28;20049;-87
2022/03/06 10:09:50;;;;;;;5.38;3.05;;;5.00;99.90;;;;;;5036101;28;20059;-86
2022/03/06 10:12:27;;;;;;;5.13;3.20;;;5.00;99.90;;;;;;5036174;28;20462;-87
2022/03/06 10:14:54;;;;;;;6.75;3.13;;;5.10;99.90;;;;;;5035006;28;20045;-86
2022/03/06 10:17:25;;;;;;;4.65;3.38;;;5.10;99.90;;;;;;5029467;28;20052;-87
2022/03/06 10:19:50;;;;;;;5.50;3.20;;;5.20;99.90;;;;;;5000255;28;20029;-86
2022/03/06 10:22:16;;;;;;;4.80;2.92;;;5.10;99.90;;;;;;5031155;28;20051;-87
2022/03/06 10:25:05;;;;;;;4.60;3.15;;;5.30;99.90;;;;;;5032147;28;20487;-86
2022/03/06 10:27:54;;;;;;;6.57;3.22;;;5.40;99.90;;;;;;5026060;28;20045;-86
2022/03/06 10:30:31;;;;;;;5.55;3.40;;;5.40;99.90;;;;;;5023787;28;20091;-87
2022/03/06 10:33:00;;;;;;;5.03;2.90;;;5.40;99.90;;;;;;5035486;28;20131;-86
2022/03/06 10:35:42;;;;;;;4.80;3.40;;;5.50;99.90;;;;;;5019597;28;20518;-86
2022/03/06 10:38:22;;;;;;;4.32;3.00;;;5.60;99.90;;;;;;4999487;28;20384;-86
2022/03/06 10:40:50;;;;;;;4.78;3.13;;;5.80;99.90;;;;;;4999503;28;20044;-87
2022/03/06 10:43:27;;;;;;;5.10;2.92;;;5.90;99.90;;;;;;5015677;28;20041;-87
2022/03/06 10:46:07;;;;;;;7.00;3.20;;;6.00;99.90;;;;;;4999215;28;20029;-86
2022/03/06 10:48:32;;;;;;;5.72;3.03;;;6.20;99.90;;;;;;5016024;28;20045;-86
2022/03/06 10:50:59;;;;;;;5.63;2.85;;;6.20;99.90;;;;;;5016064;28;20212;-87
2022/03/06 10:53:25;;;;;;;5.20;3.20;;;6.40;99.90;;;;;;5015182;28;20131;-87
2022/03/06 10:55:52;;;;;;;4.25;3.13;;;6.50;99.90;;;;;;5015622;28;20517;-87
2022/03/06 10:58:20;;;;;;;5.35;2.97;;;6.60;99.90;;;;;;5015642;28;20041;-87
2022/03/06 11:00:47;;;;;;;5.93;3.03;;;6.60;99.90;;;;;;4999050;28;20488;-87
2022/03/06 11:03:13;;;;;;;5.50;2.95;;;6.60;99.90;;;;;;4999148;28;20034;-87
2022/03/06 11:05:42;;;;;;;6.75;3.20;;;6.80;99.90;;;;;;4999147;28;20439;-86
2022/03/06 11:08:11;;;;;;;4.97;3.10;;;6.70;99.90;;;;;;5014660;28;20041;-87
2022/03/06 11:10:39;;;;;;;5.50;3.28;;;6.50;99.90;;;;;;5003858;28;20037;-87
2022/03/06 11:13:05;;;;;;;4.93;3.25;;;6.70;99.90;;;;;;5035123;28;20095;-87
2022/03/06 11:15:30;;;;;;;5.85;3.40;;;6.80;99.90;;;;;;5034737;28;20044;-87
2022/03/06 11:18:00;;;;;;;5.32;3.00;;;6.50;99.90;;;;;;5035039;28;20048;-86
2022/03/06 11:20:30;;;;;;;6.25;3.22;;;6.50;99.90;;;;;;5034541;28;20087;-87
2022/03/06 11:23:23;;;;;;;6.53;3.28;;;6.40;99.90;;;;;;5018403;28;20433;-87
2022/03/06 11:26:09;;;;;;;5.78;3.50;;;6.50;99.90;;;;;;5033961;28;20043;-86
2022/03/06 11:29:03;;;;;;;6.20;3.22;;;6.80;99.90;;;;;;5018507;28;20498;-86
2022/03/06 11:31:42;;;;;;;5.13;3.10;;;6.90;99.90;;;;;;5018128;28;20084;-86
2022/03/06 11:34:09;;;;;;;5.28;3.00;;;7.00;99.90;;;;;;5018174;28;20041;-87
2022/03/06 11:36:47;;;;;;;6.30;2.63;;;7.20;99.90;;;;;;5034453;28;20052;-87
2022/03/06 11:39:31;;;;;;;5.43;3.30;;;7.40;99.90;;;;;;5017644;28;20447;-86
2022/03/06 11:42:04;;;;;;;6.57;3.60;;;7.60;99.90;;;;;;5033704;28;20037;-86
2022/03/06 11:44:40;;;;;;;7.23;3.37;;;7.50;99.90;;;;;;5017903;28;20344;-86
2022/03/06 11:47:13;;;;;;;4.70;2.97;;;7.50;99.90;;;;;;5031582;28;20063;-86
2022/03/06 11:49:38;;;;;;;5.75;2.95;;;7.50;99.90;;;;;;5014832;28;20516;-86
2022/03/06 11:52:28;;;;;;;4.97;3.03;;;7.50;99.90;;;;;;4998274;28;20041;-87
2022/03/06 11:54:54;;;;;;;4.88;3.17;;;7.40;99.90;;;;;;5014235;28;20120;-86
2022/03/06 11:57:34;;;;;;;7.65;3.25;;;7.50;99.90;;;;;;5014902;28;20491;-86
2022/03/06 12:00:16;;;;;;;6.72;3.10;;;7.60;99.90;;;;;;4998150;28;20030;-86
2022/03/06 12:02:59;;;;;;;5.65;3.08;;;7.70;99.90;;;;;;4998301;28;20099;-86
2022/03/06 12:05:52;;;;;;;5.35;3.33;;;7.80;99.90;;;;;;4997820;28;20056;-86
2022/03/06 12:08:18;;;;;;;6.40;3.30;;;7.80;99.90;;;;;;4997822;28;20045;-86
2022/03/06 12:10:44;;;;;;;6.97;3.35;;;7.80;99.90;;;;;;5014262;28;20045;-86
2022/03/06 12:13:20;;;;;;;3.85;3.03;;;7.70;99.90;;;;;;4997900;28;20087;-86
2022/03/06 12:16:04;;;;;;;6.47;3.08;;;7.80;99.90;;;;;;5013795;28;20073;-85
2022/03/06 12:18:30;;;;;;;6.35;3.63;;;7.80;99.90;;;;;;5014084;28;20042;-86
2022/03/06 12:20:56;;;;;;;4.68;3.05;;;7.60;99.90;;;;;;5013946;28;20037;-86
2022/03/06 12:23:24;;;;;;;4.93;3.33;;;7.60;99.90;;;;;;4997515;28;20064;-86
2022/03/06 12:25:52;;;;;;;5.35;3.00;;;7.70;99.90;;;;;;5013688;28;20037;-86
2022/03/06 12:28:19;;;;;;;5.75;3.15;;;7.80;99.90;;;;;;5013922;28;20045;-86
2022/03/06 12:30:45;;;;;;;6.65;3.10;;;7.80;99.90;;;;;;4997473;28;20041;-86
2022/03/06 12:33:32;;;;;;;5.07;3.15;;;7.90;99.90;;;;;;5014071;28;20044;-86
2022/03/06 12:36:13;;;;;;;5.45;3.03;;;7.80;99.90;;;;;;4997569;28;20395;-86
2022/03/06 12:38:38;;;;;;;6.50;3.08;;;7.80;99.90;;;;;;4997439;28;20080;-86
2022/03/06 12:41:05;;;;;;;4.70;2.70;;;8.00;99.90;;;;;;5013923;28;20041;-86
2022/03/06 12:43:32;;;;;;;4.43;3.00;;;8.20;99.90;;;;;;4997443;28;20037;-86
2022/03/06 12:46:01;;;;;;;4.55;2.53;;;8.30;99.90;;;;;;4996973;28;20037;-86
2022/03/06 12:48:28;;;;;;;5.03;2.90;;;8.40;99.90;;;;;;5013764;28;20410;-86
2022/03/06 12:50:53;;;;;;;5.22;3.10;;;8.50;99.90;;;;;;4997237;28;20046;-86
2022/03/06 12:53:20;;;;;;;6.85;3.35;;;8.30;99.90;;;;;;4998394;28;20046;-86